Flight Track Log - Related Links

Times and Time Zones

All times are in EDT time to prevent confusion due to time zone crossing. See the DAL110 flight status page for this flight to view local times or setup timezone preferences in your user account.

Time Position Orientation Groundspeed Altitude Reporting Facility
EDT Latitude Longitude Course Direction KTS MPH feet Rate Location/Type
Wed 07:38:00 PM -34.7094 -58.5821 339° North  Level FlightAware Approximate
Wed 07:39:00 PM -34.5954 -58.6352 339° North  Level FlightAware Approximate
Wed 07:40:00 PM -34.4813 -58.6881 339° North  Level FlightAware Approximate
Wed 07:41:00 PM -34.3672 -58.7409 339° North  Level FlightAware Approximate
Wed 07:42:00 PM -34.2530 -58.7936 339° North  Level FlightAware Approximate
Wed 07:43:00 PM -34.1389 -58.8461 339° North  Level FlightAware Approximate
Wed 07:44:00 PM -34.0247 -58.8985 339° North  Level FlightAware Approximate
Wed 07:45:00 PM -33.9105 -58.9507 339° North  Level FlightAware Approximate
Wed 07:46:00 PM -33.7963 -59.0029 339° North  Level FlightAware Approximate
Wed 07:47:00 PM -33.6820 -59.0548 339° North  Level FlightAware Approximate
Wed 07:48:00 PM -33.5677 -59.1067 339° North  Level FlightAware Approximate
Wed 07:49:00 PM -33.4534 -59.1584 339° North  Level FlightAware Approximate
Wed 07:50:00 PM -33.3391 -59.2099 339° North  Level FlightAware Approximate
Wed 07:51:00 PM -33.2223 -59.2626 339° North  Level FlightAware Approximate
Wed 07:52:00 PM -33.1068 -59.3152 339° North  Level FlightAware Approximate
Wed 07:53:00 PM -32.9913 -59.3677 339° North  Level FlightAware Approximate
Wed 07:54:00 PM -32.8758 -59.4200 339° North  Level FlightAware Approximate
Wed 07:55:00 PM -32.7603 -59.4721 339° North  Level FlightAware Approximate
Wed 07:56:00 PM -32.6447 -59.5242 339° North  Level FlightAware Approximate
Wed 07:57:00 PM -32.5291 -59.5761 339° North  Level FlightAware Approximate
Wed 07:58:00 PM -32.4135 -59.6278 339° North  Level FlightAware Approximate
Wed 07:59:00 PM -32.2979 -59.6795 339° North  Level FlightAware Approximate
Wed 08:00:00 PM -32.1822 -59.7310 339° North  Level FlightAware Approximate
Wed 08:01:00 PM -32.0665 -59.7823 339° North  Level FlightAware Approximate
Wed 08:02:00 PM -31.9508 -59.8336 339° North  Level FlightAware Approximate
Wed 08:03:00 PM -31.8351 -59.8847 339° North  Level FlightAware Approximate
Wed 08:04:00 PM -31.7194 -59.9357 339° North  Level FlightAware Approximate
Wed 08:05:00 PM -31.6037 -59.9865 339° North  Level FlightAware Approximate
Wed 08:06:00 PM -31.4879 -60.0373 340° North  Level FlightAware Approximate
Wed 08:07:00 PM -31.3721 -60.0879 340° North  Level FlightAware Approximate
Wed 08:08:00 PM -31.2563 -60.1383 340° North  Level FlightAware Approximate
Wed 08:09:00 PM -31.1405 -60.1887 340° North  Level FlightAware Approximate
Wed 08:10:00 PM -31.0246 -60.2389 340° North  Level FlightAware Approximate
Wed 08:11:00 PM -30.9087 -60.2890 340° North  Level FlightAware Approximate
Wed 08:12:00 PM -30.7929 -60.3390 340° North  Level FlightAware Approximate
Wed 08:13:00 PM -30.6769 -60.3889 340° North  Level FlightAware Approximate
Wed 08:14:00 PM -30.5610 -60.4386 340° North  Level FlightAware Approximate
Wed 08:15:00 PM -30.4451 -60.4883 340° North  Level FlightAware Approximate
Wed 08:16:00 PM -30.3291 -60.5378 340° North  Level FlightAware Approximate
Wed 08:17:00 PM -30.2131 -60.5872 340° North  Level FlightAware Approximate
Wed 08:18:00 PM -30.0971 -60.6365 340° North  Level FlightAware Approximate
Wed 08:19:00 PM -29.9811 -60.6856 340° North  Level FlightAware Approximate
Wed 08:20:00 PM -29.8650 -60.7347 340° North  Level FlightAware Approximate
Wed 08:21:00 PM -29.7490 -60.7836 340° North  Level FlightAware Approximate
Wed 08:22:00 PM -29.6329 -60.8325 340° North  Level FlightAware Approximate
Wed 08:23:00 PM -29.5168 -60.8812 340° North  Level FlightAware Approximate
Wed 08:24:00 PM -29.4007 -60.9298 340° North  Level FlightAware Approximate
Wed 08:25:00 PM -29.2846 -60.9782 340° North  Level FlightAware Approximate
Wed 08:26:00 PM -29.1684 -61.0266 340° North  Level FlightAware Approximate
Wed 08:27:00 PM -29.0523 -61.0749 340° North  Level FlightAware Approximate
Wed 08:28:00 PM -28.9361 -61.1231 340° North  Level FlightAware Approximate
Wed 08:29:00 PM -28.8199 -61.1711 340° North  Level FlightAware Approximate
Wed 08:30:00 PM -28.7037 -61.2191 340° North  Level FlightAware Approximate
Wed 08:31:00 PM -28.5874 -61.2669 340° North  Level FlightAware Approximate
Wed 08:32:00 PM -28.4712 -61.3146 340° North  Level FlightAware Approximate
Wed 08:33:00 PM -28.3549 -61.3623 340° North  Level FlightAware Approximate
Wed 08:34:00 PM -28.2386 -61.4098 340° North  Level FlightAware Approximate
Wed 08:35:00 PM -28.1223 -61.4572 340° North  Level FlightAware Approximate
Wed 08:36:00 PM -28.0060 -61.5045 340° North  Level FlightAware Approximate
Wed 08:37:00 PM -27.8897 -61.5517 340° North  Level FlightAware Approximate
Wed 08:38:00 PM -27.7733 -61.5989 340° North  Level FlightAware Approximate
Wed 08:39:00 PM -27.6570 -61.6459 340° North  Level FlightAware Approximate
Wed 08:40:00 PM -27.5406 -61.6928 340° North  Level FlightAware Approximate
Wed 08:41:00 PM -27.4242 -61.7396 340° North  Level FlightAware Approximate
Wed 08:42:00 PM -27.3078 -61.7863 340° North  Level FlightAware Approximate
Wed 08:43:00 PM -27.1914 -61.8329 340° North  Level FlightAware Approximate
Wed 08:44:00 PM -27.0749 -61.8794 340° North  Level FlightAware Approximate
Wed 08:45:00 PM -26.9585 -61.9259 340° North  Level FlightAware Approximate
Wed 08:46:00 PM -26.8420 -61.9722 340° North  Level FlightAware Approximate
Wed 08:47:00 PM -26.7255 -62.0184 340° North  Level FlightAware Approximate
Wed 08:48:00 PM -26.6090 -62.0646 341° North  Level FlightAware Approximate
Wed 08:49:00 PM -26.4925 -62.1106 341° North  Level FlightAware Approximate
Wed 08:50:00 PM -26.3759 -62.1566 341° North  Level FlightAware Approximate
Wed 08:51:00 PM -26.2594 -62.2024 341° North  Level FlightAware Approximate
Wed 08:52:00 PM -26.1428 -62.2482 341° North  Level FlightAware Approximate
Wed 08:53:00 PM -26.0263 -62.2939 341° North  Level FlightAware Approximate
Wed 08:54:00 PM -25.9097 -62.3394 341° North  Level FlightAware Approximate
Wed 08:55:00 PM -25.7931 -62.3849 341° North  Level FlightAware Approximate
Wed 08:56:00 PM -25.6764 -62.4303 341° North  Level FlightAware Approximate
Wed 08:57:00 PM -25.5598 -62.4757 341° North  Level FlightAware Approximate
Wed 08:58:00 PM -25.4432 -62.5209 341° North  Level FlightAware Approximate
Wed 08:59:00 PM -25.3265 -62.5660 341° North  Level FlightAware Approximate
Wed 09:00:00 PM -25.2098 -62.6111 341° North  Level FlightAware Approximate
Wed 09:01:00 PM -25.0931 -62.6561 341° North  Level FlightAware Approximate
Wed 09:02:00 PM -24.9764 -62.7009 341° North  Level FlightAware Approximate
Wed 09:03:00 PM -24.8597 -62.7457 341° North  Level FlightAware Approximate
Wed 09:04:00 PM -24.7430 -62.7904 341° North  Level FlightAware Approximate
Wed 09:05:00 PM -24.6263 -62.8351 341° North  Level FlightAware Approximate
Wed 09:06:00 PM -24.5095 -62.8796 341° North  Level FlightAware Approximate
Wed 09:07:00 PM -24.3927 -62.9241 341° North  Level FlightAware Approximate
Wed 09:08:00 PM -24.2760 -62.9685 341° North  Level FlightAware Approximate
Wed 09:09:00 PM -24.1592 -63.0128 341° North  Level FlightAware Approximate
Wed 09:10:00 PM -24.0424 -63.0570 341° North  Level FlightAware Approximate
Wed 09:11:00 PM -23.9255 -63.1011 341° North  Level FlightAware Approximate
Wed 09:12:00 PM -23.8087 -63.1452 341° North  Level FlightAware Approximate
Wed 09:13:00 PM -23.6919 -63.1892 341° North  Level FlightAware Approximate
Wed 09:14:00 PM -23.5750 -63.2331 341° North  Level FlightAware Approximate
Wed 09:15:00 PM -23.4581 -63.2769 341° North  Level FlightAware Approximate
Wed 09:16:00 PM -23.3413 -63.3206 341° North  Level FlightAware Approximate
Wed 09:17:00 PM -23.2244 -63.3643 341° North  Level FlightAware Approximate
Wed 09:18:00 PM -23.1075 -63.4079 341° North  Level FlightAware Approximate
Wed 09:19:00 PM -22.9905 -63.4514 341° North  Level FlightAware Approximate
Wed 09:20:00 PM -22.8736 -63.4948 341° North  Level FlightAware Approximate
Wed 09:21:00 PM -22.7567 -63.5382 341° North  Level FlightAware Approximate
Wed 09:22:00 PM -22.6397 -63.5815 341° North  Level FlightAware Approximate
Wed 09:23:00 PM -22.5228 -63.6247 341° North  Level FlightAware Approximate
Wed 09:24:00 PM -22.4058 -63.6679 341° North  Level FlightAware Approximate
Wed 09:25:00 PM -22.2882 -63.7112 341° North  Level FlightAware Approximate
Wed 09:26:00 PM -22.1706 -63.7544 341° North  Level FlightAware Approximate
Wed 09:27:00 PM -22.0530 -63.7975 341° North  Level FlightAware Approximate
Wed 09:28:00 PM -21.9354 -63.8406 341° North  Level FlightAware Approximate
Wed 09:29:00 PM -21.8178 -63.8836 341° North  Level FlightAware Approximate
Wed 09:30:00 PM -21.7002 -63.9265 341° North  Level FlightAware Approximate
Wed 09:31:00 PM -21.5825 -63.9694 341° North  Level FlightAware Approximate
Wed 09:32:00 PM -21.4648 -64.0122 341° North  Level FlightAware Approximate
Wed 09:33:00 PM -21.3472 -64.0549 341° North  Level FlightAware Approximate
Wed 09:34:00 PM -21.2295 -64.0975 341° North  Level FlightAware Approximate
Wed 09:35:00 PM -21.1118 -64.1401 341° North  Level FlightAware Approximate
Wed 09:36:00 PM -20.9941 -64.1826 341° North  Level FlightAware Approximate
Wed 09:37:00 PM -20.8764 -64.2251 341° North  Level FlightAware Approximate
Wed 09:38:00 PM -20.7587 -64.2675 341° North  Level FlightAware Approximate
Wed 09:39:00 PM -20.6409 -64.3098 341° North  Level FlightAware Approximate
Wed 09:40:00 PM -20.5232 -64.3521 341° North  Level FlightAware Approximate
Wed 09:41:00 PM -20.4055 -64.3942 341° North  Level FlightAware Approximate
Wed 09:42:00 PM -20.2877 -64.4364 341° North  Level FlightAware Approximate
Wed 09:43:00 PM -20.1699 -64.4784 341° North  Level FlightAware Approximate
Wed 09:44:00 PM -20.0522 -64.5204 341° North  Level FlightAware Approximate
Wed 09:45:00 PM -19.9344 -64.5623 341° North  Level FlightAware Approximate
Wed 09:46:00 PM -19.8166 -64.6042 342° North  Level FlightAware Approximate
Wed 09:47:00 PM -19.6987 -64.6460 342° North  Level FlightAware Approximate
Wed 09:48:00 PM -19.5809 -64.6878 342° North  Level FlightAware Approximate
Wed 09:49:00 PM -19.4631 -64.7295 342° North  Level FlightAware Approximate
Wed 09:50:00 PM -19.3453 -64.7711 342° North  Level FlightAware Approximate
Wed 09:51:00 PM -19.2274 -64.8127 342° North  Level FlightAware Approximate
Wed 09:52:00 PM -19.1096 -64.8542 342° North  Level FlightAware Approximate
Wed 09:53:00 PM -18.9917 -64.8956 342° North  Level FlightAware Approximate
Wed 09:54:00 PM -18.8738 -64.9370 342° North  Level FlightAware Approximate
Wed 09:55:00 PM -18.7559 -64.9783 342° North  Level FlightAware Approximate
Wed 09:56:00 PM -18.6380 -65.0196 342° North  Level FlightAware Approximate
Wed 09:57:00 PM -18.5201 -65.0608 342° North  Level FlightAware Approximate
Wed 09:58:00 PM -18.4022 -65.1020 342° North  Level FlightAware Approximate
Wed 09:59:00 PM -18.2843 -65.1431 342° North  Level FlightAware Approximate
Wed 10:00:00 PM -18.1663 -65.1842 342° North  Level FlightAware Approximate
Wed 10:01:00 PM -18.0484 -65.2251 342° North  Level FlightAware Approximate
Wed 10:02:00 PM -17.9305 -65.2661 342° North  Level FlightAware Approximate
Wed 10:03:00 PM -17.8125 -65.3070 342° North  Level FlightAware Approximate
Wed 10:04:00 PM -17.6945 -65.3478 342° North  Level FlightAware Approximate
Wed 10:05:00 PM -17.5765 -65.3886 342° North  Level FlightAware Approximate
Wed 10:06:00 PM -17.4586 -65.4293 342° North  Level FlightAware Approximate
Wed 10:07:00 PM -17.3406 -65.4699 342° North  Level FlightAware Approximate
Wed 10:08:00 PM -17.2226 -65.5106 342° North  Level FlightAware Approximate
Wed 10:09:00 PM -17.1046 -65.5511 342° North  Level FlightAware Approximate
Wed 10:10:00 PM -16.9865 -65.5916 342° North  Level FlightAware Approximate
Wed 10:11:00 PM -16.8685 -65.6321 342° North  Level FlightAware Approximate
Wed 10:12:00 PM -16.7505 -65.6725 342° North  Level FlightAware Approximate
Wed 10:13:00 PM -16.6325 -65.7129 342° North  Level FlightAware Approximate
Wed 10:14:00 PM -16.5144 -65.7532 342° North  Level FlightAware Approximate
Wed 10:15:00 PM -16.3964 -65.7934 342° North  Level FlightAware Approximate
Wed 10:16:00 PM -16.2783 -65.8336 342° North  Level FlightAware Approximate
Wed 10:17:00 PM -16.1602 -65.8738 342° North  Level FlightAware Approximate
Wed 10:18:00 PM -16.0422 -65.9139 342° North  Level FlightAware Approximate
Wed 10:19:00 PM -15.9241 -65.9540 342° North  Level FlightAware Approximate
Wed 10:20:00 PM -15.8060 -65.9940 342° North  Level FlightAware Approximate
Wed 10:21:00 PM -15.6879 -66.0340 342° North  Level FlightAware Approximate
Wed 10:22:00 PM -15.5698 -66.0739 342° North  Level FlightAware Approximate
Wed 10:23:00 PM -15.4517 -66.1138 342° North  Level FlightAware Approximate
Wed 10:24:00 PM -15.3335 -66.1537 342° North  Level FlightAware Approximate
Wed 10:25:00 PM -15.2154 -66.1935 342° North  Level FlightAware Approximate
Wed 10:26:00 PM -15.0973 -66.2332 342° North  Level FlightAware Approximate
Wed 10:27:00 PM -14.9791 -66.2729 342° North  Level FlightAware Approximate
Wed 10:28:00 PM -14.8610 -66.3126 342° North  Level FlightAware Approximate
Wed 10:29:00 PM -14.7428 -66.3522 342° North  Level FlightAware Approximate
Wed 10:30:00 PM -14.6247 -66.3917 342° North  Level FlightAware Approximate
Wed 10:31:00 PM -14.5065 -66.4313 342° North  Level FlightAware Approximate
Wed 10:32:00 PM -14.3883 -66.4708 342° North  Level FlightAware Approximate
Wed 10:33:00 PM -14.2701 -66.5102 342° North  Level FlightAware Approximate
Wed 10:34:00 PM -14.1519 -66.5496 342° North  Level FlightAware Approximate
Wed 10:35:00 PM -14.0337 -66.5890 342° North  Level FlightAware Approximate
Wed 10:36:00 PM -13.9155 -66.6283 342° North  Level FlightAware Approximate
Wed 10:37:00 PM -13.7973 -66.6676 342° North  Level FlightAware Approximate
Wed 10:38:00 PM -13.6791 -66.7069 342° North  Level FlightAware Approximate
Wed 10:39:00 PM -13.5609 -66.7461 342° North  Level FlightAware Approximate
Wed 10:40:00 PM -13.4427 -66.7852 342° North  Level FlightAware Approximate
Wed 10:41:00 PM -13.3244 -66.8244 342° North  Level FlightAware Approximate
Wed 10:42:00 PM -13.2062 -66.8635 342° North  Level FlightAware Approximate
Wed 10:43:00 PM -13.0880 -66.9025 342° North  Level FlightAware Approximate
Wed 10:44:00 PM -12.9697 -66.9415 342° North  Level FlightAware Approximate
Wed 10:45:00 PM -12.8514 -66.9805 342° North  Level FlightAware Approximate
Wed 10:46:00 PM -12.7346 -67.0190 342° North  Level FlightAware Approximate
Wed 10:47:00 PM -12.6177 -67.0574 342° North  Level FlightAware Approximate
Wed 10:48:00 PM -12.5008 -67.0959 342° North  Level FlightAware Approximate
Wed 10:49:00 PM -12.3839 -67.1342 342° North  Level FlightAware Approximate
Wed 10:50:00 PM -12.2670 -67.1726 342° North  Level FlightAware Approximate
Wed 10:51:00 PM -12.1501 -67.2109 342° North  Level FlightAware Approximate
Wed 10:52:00 PM -12.0332 -67.2492 342° North  Level FlightAware Approximate
Wed 10:53:00 PM -11.9163 -67.2874 342° North  Level FlightAware Approximate
Wed 10:54:00 PM -11.7993 -67.3256 342° North  Level FlightAware Approximate
Wed 10:55:00 PM -11.6824 -67.3638 342° North  Level FlightAware Approximate
Wed 10:56:00 PM -11.5655 -67.4020 342° North  Level FlightAware Approximate
Wed 10:57:00 PM -11.4485 -67.4401 342° North  Level FlightAware Approximate
Wed 10:58:00 PM -11.3316 -67.4782 342° North  Level FlightAware Approximate
Wed 10:59:00 PM -11.2146 -67.5162 342° North  Level FlightAware Approximate
Wed 11:00:00 PM -11.0977 -67.5542 342° North  Level FlightAware Approximate
Wed 11:01:00 PM -10.9807 -67.5922 342° North  Level FlightAware Approximate
Wed 11:02:00 PM -10.8638 -67.6302 342° North  Level FlightAware Approximate
Wed 11:03:00 PM -10.7468 -67.6681 342° North  Level FlightAware Approximate
Wed 11:04:00 PM -10.6298 -67.7060 342° North  Level FlightAware Approximate
Wed 11:05:00 PM -10.5128 -67.7439 342° North  Level FlightAware Approximate
Wed 11:06:00 PM -10.3959 -67.7817 342° North  Level FlightAware Approximate
Wed 11:07:00 PM -10.2789 -67.8195 342° North  Level FlightAware Approximate
Wed 11:08:00 PM -10.1619 -67.8573 342° North  Level FlightAware Approximate
Wed 11:09:00 PM -10.0449 -67.8951 342° North  Level FlightAware Approximate
Wed 11:10:00 PM -9.9279 -67.9328 342° North  Level FlightAware Approximate
Wed 11:11:00 PM -9.8109 -67.9705 342° North  Level FlightAware Approximate
Wed 11:12:00 PM -9.6939 -68.0082 342° North  Level FlightAware Approximate
Wed 11:13:00 PM -9.5769 -68.0459 342° North  Level FlightAware Approximate
Wed 11:14:00 PM -9.4599 -68.0835 342° North  Level FlightAware Approximate
Wed 11:15:00 PM -9.3429 -68.1211 342° North  Level FlightAware Approximate
Wed 11:16:00 PM -9.2258 -68.1587 342° North  Level FlightAware Approximate
Wed 11:17:00 PM -9.1088 -68.1962 342° North  Level FlightAware Approximate
Wed 11:18:00 PM -8.9918 -68.2338 342° North  Level FlightAware Approximate
Wed 11:19:00 PM -8.8748 -68.2713 342° North  Level FlightAware Approximate
Wed 11:20:00 PM -8.7577 -68.3087 342° North  Level FlightAware Approximate
Wed 11:21:00 PM -8.6407 -68.3462 342° North  Level FlightAware Approximate
Wed 11:22:00 PM -8.5236 -68.3836 342° North  Level FlightAware Approximate
Wed 11:23:00 PM -8.4066 -68.4210 342° North  Level FlightAware Approximate
Wed 11:24:00 PM -8.2895 -68.4584 342° North  Level FlightAware Approximate
Wed 11:25:00 PM -8.1725 -68.4958 342° North  Level FlightAware Approximate
Wed 11:26:00 PM -8.0554 -68.5331 342° North  Level FlightAware Approximate
Wed 11:27:00 PM -7.9384 -68.5704 342° North  Level FlightAware Approximate
Wed 11:28:00 PM -7.8213 -68.6077 342° North  Level FlightAware Approximate
Wed 11:29:00 PM -7.7042 -68.6450 342° North  Level FlightAware Approximate
Wed 11:30:00 PM -7.5871 -68.6823 342° North  Level FlightAware Approximate
Wed 11:31:00 PM -7.4701 -68.7195 342° North  Level FlightAware Approximate
Wed 11:32:00 PM -7.3530 -68.7568 343° North  Level FlightAware Approximate
Wed 11:33:00 PM -7.2359 -68.7940 343° North  Level FlightAware Approximate
Wed 11:34:00 PM -7.1188 -68.8311 343° North  Level FlightAware Approximate
Wed 11:35:00 PM -7.0017 -68.8683 343° North  Level FlightAware Approximate
Wed 11:36:00 PM -6.8847 -68.9054 343° North  Level FlightAware Approximate
Wed 11:37:00 PM -6.7676 -68.9426 343° North  Level FlightAware Approximate
Wed 11:38:00 PM -6.6505 -68.9797 343° North  Level FlightAware Approximate
Wed 11:39:00 PM -6.5334 -69.0167 343° North  Level FlightAware Approximate
Wed 11:40:00 PM -6.4163 -69.0538 343° North  Level FlightAware Approximate
Wed 11:41:00 PM -6.2992 -69.0909 343° North  Level FlightAware Approximate
Wed 11:42:00 PM -6.1821 -69.1279 343° North  Level FlightAware Approximate
Wed 11:43:00 PM -6.0649 -69.1649 343° North  Level FlightAware Approximate
Wed 11:44:00 PM -5.9478 -69.2019 343° North  Level FlightAware Approximate
Wed 11:45:00 PM -5.8307 -69.2389 343° North  Level FlightAware Approximate
Wed 11:46:00 PM -5.7136 -69.2759 343° North  Level FlightAware Approximate
Wed 11:47:00 PM -5.5965 -69.3129 343° North  Level FlightAware Approximate
Wed 11:48:00 PM -5.4794 -69.3498 343° North  Level FlightAware Approximate
Wed 11:49:00 PM -5.3622 -69.3867 343° North  Level FlightAware Approximate
Wed 11:50:00 PM -5.2451 -69.4236 343° North  Level FlightAware Approximate
Wed 11:51:00 PM -5.1280 -69.4605 343° North  Level FlightAware Approximate
Wed 11:52:00 PM -5.0108 -69.4974 343° North  Level FlightAware Approximate
Wed 11:53:00 PM -4.8937 -69.5343 343° North  Level FlightAware Approximate
Wed 11:54:00 PM -4.7754 -69.5715 343° North  Level FlightAware Approximate
Wed 11:55:00 PM -4.6571 -69.6087 343° North  Level FlightAware Approximate
Wed 11:56:00 PM -4.5388 -69.6460 343° North  Level FlightAware Approximate
Wed 11:57:00 PM -4.4204 -69.6832 343° North  Level FlightAware Approximate
Wed 11:58:00 PM -4.3021 -69.7203 343° North  Level FlightAware Approximate
Wed 11:59:00 PM -4.1838 -69.7575 343° North  Level FlightAware Approximate
Thu 12:00:00 AM -4.0655 -69.7947 343° North  Level FlightAware Approximate
Thu 12:01:00 AM -3.9471 -69.8318 343° North  Level FlightAware Approximate
Thu 12:02:00 AM -3.8288 -69.8689 343° North  Level FlightAware Approximate
Thu 12:03:00 AM -3.7104 -69.9061 343° North  Level FlightAware Approximate
Thu 12:04:00 AM -3.5921 -69.9432 343° North  Level FlightAware Approximate
Thu 12:05:00 AM -3.4738 -69.9803 343° North  Level FlightAware Approximate
Thu 12:06:00 AM -3.3554 -70.0174 343° North  Level FlightAware Approximate
Thu 12:07:00 AM -3.2371 -70.0545 343° North  Level FlightAware Approximate
Thu 12:08:00 AM -3.1188 -70.0916 343° North  Level FlightAware Approximate
Thu 12:09:00 AM -3.0004 -70.1287 343° North  Level FlightAware Approximate
Thu 12:10:00 AM -2.8821 -70.1657 343° North  Level FlightAware Approximate
Thu 12:11:00 AM -2.7637 -70.2028 343° North  Level FlightAware Approximate
Thu 12:12:00 AM -2.6454 -70.2398 343° North  Level FlightAware Approximate
Thu 12:13:00 AM -2.5270 -70.2769 343° North  Level FlightAware Approximate
Thu 12:14:00 AM -2.4087 -70.3139 343° North  Level FlightAware Approximate
Thu 12:15:00 AM -2.2903 -70.3510 343° North  Level FlightAware Approximate
Thu 12:16:00 AM -2.1720 -70.3880 343° North  Level FlightAware Approximate
Thu 12:17:00 AM -2.0536 -70.4250 343° North  Level FlightAware Approximate
Thu 12:18:00 AM -1.9353 -70.4620 343° North  Level FlightAware Approximate
Thu 12:19:00 AM -1.8169 -70.4990 343° North  Level FlightAware Approximate
Thu 12:20:00 AM -1.6986 -70.5360 343° North  Level FlightAware Approximate
Thu 12:21:00 AM -1.5802 -70.5730 343° North  Level FlightAware Approximate
Thu 12:22:00 AM -1.4619 -70.6100 343° North  Level FlightAware Approximate
Thu 12:23:00 AM -1.3435 -70.6470 343° North  Level FlightAware Approximate
Thu 12:24:00 AM -1.2251 -70.6840 343° North  Level FlightAware Approximate
Thu 12:25:00 AM -1.1068 -70.7210 343° North  Level FlightAware Approximate
Thu 12:26:00 AM -0.9884 -70.7580 343° North  Level FlightAware Approximate
Thu 12:27:00 AM -0.8701 -70.7950 343° North  Level FlightAware Approximate
Thu 12:28:00 AM -0.7517 -70.8319 343° North  Level FlightAware Approximate
Thu 12:29:00 AM -0.6333 -70.8689 343° North  Level FlightAware Approximate
Thu 12:30:00 AM -0.5150 -70.9059 343° North  Level FlightAware Approximate
Thu 12:31:00 AM -0.3966 -70.9428 343° North  Level FlightAware Approximate
Thu 12:32:00 AM -0.2783 -70.9798 343° North  Level FlightAware Approximate
Thu 12:33:00 AM -0.1599 -71.0168 343° North  Level FlightAware Approximate
Thu 12:34:00 AM -0.0415 -71.0538 343° North  Level FlightAware Approximate
Thu 12:35:00 AM 0.0768 -71.0907 343° North  Level FlightAware Approximate
Thu 12:36:00 AM 0.1952 -71.1277 343° North  Level FlightAware Approximate
Thu 12:37:00 AM 0.3135 -71.1647 343° North  Level FlightAware Approximate
Thu 12:38:00 AM 0.4319 -71.2016 343° North  Level FlightAware Approximate
Thu 12:39:00 AM 0.5503 -71.2386 343° North  Level FlightAware Approximate
Thu 12:40:00 AM 0.6686 -71.2756 343° North  Level FlightAware Approximate
Thu 12:41:00 AM 0.7870 -71.3126 343° North  Level FlightAware Approximate
Thu 12:42:00 AM 0.9054 -71.3495 343° North  Level FlightAware Approximate
Thu 12:43:00 AM 1.0237 -71.3865 343° North  Level FlightAware Approximate
Thu 12:44:00 AM 1.1421 -71.4235 343° North  Level FlightAware Approximate
Thu 12:45:00 AM 1.2604 -71.4605 343° North  Level FlightAware Approximate
Thu 12:46:00 AM 1.3788 -71.4975 343° North  Level FlightAware Approximate
Thu 12:47:00 AM 1.4971 -71.5345 343° North  Level FlightAware Approximate
Thu 12:48:00 AM 1.6155 -71.5715 343° North  Level FlightAware Approximate
Thu 12:49:00 AM 1.7339 -71.6085 343° North  Level FlightAware Approximate
Thu 12:50:00 AM 1.8522 -71.6455 343° North  Level FlightAware Approximate
Thu 12:51:00 AM 1.9706 -71.6825 343° North  Level FlightAware Approximate
Thu 12:52:00 AM 2.0889 -71.7195 343° North  Level FlightAware Approximate
Thu 12:53:00 AM 2.2073 -71.7566 343° North  Level FlightAware Approximate
Thu 12:54:00 AM 2.3256 -71.7936 343° North  Level FlightAware Approximate
Thu 12:55:00 AM 2.4440 -71.8307 343° North  Level FlightAware Approximate
Thu 12:56:00 AM 2.5623 -71.8677 343° North  Level FlightAware Approximate
Thu 12:57:00 AM 2.6806 -71.9048 343° North  Level FlightAware Approximate
Thu 12:58:00 AM 2.7990 -71.9418 343° North  Level FlightAware Approximate
Thu 12:59:00 AM 2.9173 -71.9789 343° North  Level FlightAware Approximate
Thu 01:00:00 AM 3.0357 -72.0160 343° North  Level FlightAware Approximate
Thu 01:01:00 AM 3.1540 -72.0531 343° North  Level FlightAware Approximate
Thu 01:02:00 AM 3.2724 -72.0902 343° North  Level FlightAware Approximate
Thu 01:03:00 AM 3.3907 -72.1273 343° North  Level FlightAware Approximate
Thu 01:04:00 AM 3.5090 -72.1644 343° North  Level FlightAware Approximate
Thu 01:05:00 AM 3.6274 -72.2015 343° North  Level FlightAware Approximate
Thu 01:06:00 AM 3.7457 -72.2387 343° North  Level FlightAware Approximate
Thu 01:07:00 AM 3.8640 -72.2758 343° North  Level FlightAware Approximate
Thu 01:08:00 AM 3.9824 -72.3130 343° North  Level FlightAware Approximate
Thu 01:09:00 AM 4.1007 -72.3502 343° North  Level FlightAware Approximate
Thu 01:10:00 AM 4.2190 -72.3873 343° North  Level FlightAware Approximate
Thu 01:11:00 AM 4.3369 -72.4244 343° North  Level FlightAware Approximate
Thu 01:12:00 AM 4.4549 -72.4615 343° North  Level FlightAware Approximate
Thu 01:13:00 AM 4.5728 -72.4986 343° North  Level FlightAware Approximate
Thu 01:14:00 AM 4.6907 -72.5357 342° North  Level FlightAware Approximate
Thu 01:15:00 AM 4.8085 -72.5731 342° North  Level FlightAware Approximate
Thu 01:16:00 AM 4.9263 -72.6105 342° North  Level FlightAware Approximate
Thu 01:17:00 AM 5.0441 -72.6480 342° North  Level FlightAware Approximate
Thu 01:18:00 AM 5.1620 -72.6854 342° North  Level FlightAware Approximate
Thu 01:19:00 AM 5.2798 -72.7229 342° North  Level FlightAware Approximate
Thu 01:20:00 AM 5.3976 -72.7604 342° North  Level FlightAware Approximate
Thu 01:21:00 AM 5.5154 -72.7979 342° North  Level FlightAware Approximate
Thu 01:22:00 AM 5.6332 -72.8354 342° North  Level FlightAware Approximate
Thu 01:23:00 AM 5.7510 -72.8730 342° North  Level FlightAware Approximate
Thu 01:24:00 AM 5.8688 -72.9105 342° North  Level FlightAware Approximate
Thu 01:25:00 AM 5.9866 -72.9481 342° North  Level FlightAware Approximate
Thu 01:26:00 AM 6.1044 -72.9857 342° North  Level FlightAware Approximate
Thu 01:27:00 AM 6.2222 -73.0233 342° North  Level FlightAware Approximate
Thu 01:28:00 AM 6.3400 -73.0609 342° North  Level FlightAware Approximate
Thu 01:29:00 AM 6.4578 -73.0985 342° North  Level FlightAware Approximate
Thu 01:30:00 AM 6.5756 -73.1362 342° North  Level FlightAware Approximate
Thu 01:31:00 AM 6.6933 -73.1739 342° North  Level FlightAware Approximate
Thu 01:32:00 AM 6.8111 -73.2116 342° North  Level FlightAware Approximate
Thu 01:33:00 AM 6.9289 -73.2493 342° North  Level FlightAware Approximate
Thu 01:34:00 AM 7.0466 -73.2871 342° North  Level FlightAware Approximate
Thu 01:35:00 AM 7.1644 -73.3249 342° North  Level FlightAware Approximate
Thu 01:36:00 AM 7.2821 -73.3627 342° North  Level FlightAware Approximate
Thu 01:37:00 AM 7.3999 -73.4005 342° North  Level FlightAware Approximate
Thu 01:38:00 AM 7.5176 -73.4383 342° North  Level FlightAware Approximate
Thu 01:39:00 AM 7.6354 -73.4762 342° North  Level FlightAware Approximate
Thu 01:40:00 AM 7.7531 -73.5141 342° North  Level FlightAware Approximate
Thu 01:41:00 AM 7.8709 -73.5520 342° North  Level FlightAware Approximate
Thu 01:42:00 AM 7.9886 -73.5899 342° North  Level FlightAware Approximate
Thu 01:43:00 AM 8.1063 -73.6278 342° North  Level FlightAware Approximate
Thu 01:44:00 AM 8.2241 -73.6658 342° North  Level FlightAware Approximate
Thu 01:45:00 AM 8.3418 -73.7038 342° North  Level FlightAware Approximate
Thu 01:46:00 AM 8.4596 -73.7416 343° North  Level FlightAware Approximate
Thu 01:47:00 AM 8.5775 -73.7790 343° North  Level FlightAware Approximate
Thu 01:48:00 AM 8.6954 -73.8164 343° North  Level FlightAware Approximate
Thu 01:49:00 AM 8.8133 -73.8539 343° North  Level FlightAware Approximate
Thu 01:50:00 AM 8.9312 -73.8913 343° North  Level FlightAware Approximate
Thu 01:51:00 AM 9.0491 -73.9288 343° North  Level FlightAware Approximate
Thu 01:52:00 AM 9.1671 -73.9663 343° North  Level FlightAware Approximate
Thu 01:53:00 AM 9.2850 -74.0038 343° North  Level FlightAware Approximate
Thu 01:54:00 AM 9.4029 -74.0413 343° North  Level FlightAware Approximate
Thu 01:55:00 AM 9.5207 -74.0789 343° North  Level FlightAware Approximate
Thu 01:56:00 AM 9.6386 -74.1165 343° North  Level FlightAware Approximate
Thu 01:57:00 AM 9.7565 -74.1542 343° North  Level FlightAware Approximate
Thu 01:58:00 AM 9.8744 -74.1918 343° North  Level FlightAware Approximate
Thu 01:59:00 AM 9.9923 -74.2295 343° North  Level FlightAware Approximate
Thu 02:00:00 AM 10.1102 -74.2672 343° North  Level FlightAware Approximate
Thu 02:01:00 AM 10.2280 -74.3049 343° North  Level FlightAware Approximate
Thu 02:02:00 AM 10.3459 -74.3427 342° North  Level FlightAware Approximate
Thu 02:03:00 AM 10.4637 -74.3807 342° North  Level FlightAware Approximate
Thu 02:04:00 AM 10.5815 -74.4187 342° North  Level FlightAware Approximate
Thu 02:05:00 AM 10.6993 -74.4567 342° North  Level FlightAware Approximate
Thu 02:06:00 AM 10.8171 -74.4948 342° North  Level FlightAware Approximate
Thu 02:07:00 AM 10.9349 -74.5329 342° North  Level FlightAware Approximate
Thu 02:08:00 AM 11.0527 -74.5710 342° North  Level FlightAware Approximate
Thu 02:09:00 AM 11.1704 -74.6092 342° North  Level FlightAware Approximate
Thu 02:10:00 AM 11.2882 -74.6473 342° North  Level FlightAware Approximate
Thu 02:11:00 AM 11.4060 -74.6855 342° North  Level FlightAware Approximate
Thu 02:12:00 AM 11.5237 -74.7238 342° North  Level FlightAware Approximate
Thu 02:13:00 AM 11.6415 -74.7621 342° North  Level FlightAware Approximate
Thu 02:14:00 AM 11.7592 -74.8004 342° North  Level FlightAware Approximate
Thu 02:15:00 AM 11.8770 -74.8387 342° North  Level FlightAware Approximate
Thu 02:16:00 AM 11.9947 -74.8771 342° North  Level FlightAware Approximate
Thu 02:17:00 AM 12.1125 -74.9155 342° North  Level FlightAware Approximate
Thu 02:18:00 AM 12.2302 -74.9539 342° North  Level FlightAware Approximate
Thu 02:19:00 AM 12.3479 -74.9924 342° North  Level FlightAware Approximate
Thu 02:20:00 AM 12.4656 -75.0309 342° North  Level FlightAware Approximate
Thu 02:21:00 AM 12.5834 -75.0694 342° North  Level FlightAware Approximate
Thu 02:22:00 AM 12.7011 -75.1080 342° North  Level FlightAware Approximate
Thu 02:23:00 AM 12.8188 -75.1466 342° North  Level FlightAware Approximate
Thu 02:24:00 AM 12.9365 -75.1853 342° North  Level FlightAware Approximate
Thu 02:25:00 AM 13.0546 -75.2241 342° North  Level FlightAware Approximate
Thu 02:26:00 AM 13.1727 -75.2629 342° North  Level FlightAware Approximate
Thu 02:27:00 AM 13.2908 -75.3016 342° North  Level FlightAware Approximate
Thu 02:28:00 AM 13.4089 -75.3404 342° North  Level FlightAware Approximate
Thu 02:29:00 AM 13.5270 -75.3792 342° North  Level FlightAware Approximate
Thu 02:30:00 AM 13.6451 -75.4180 342° North  Level FlightAware Approximate
Thu 02:31:00 AM 13.7632 -75.4569 342° North  Level FlightAware Approximate
Thu 02:32:00 AM 13.8813 -75.4958 342° North  Level FlightAware Approximate
Thu 02:33:00 AM 13.9994 -75.5348 342° North  Level FlightAware Approximate
Thu 02:34:00 AM 14.1175 -75.5738 342° North  Level FlightAware Approximate
Thu 02:35:00 AM 14.2356 -75.6128 342° North  Level FlightAware Approximate
Thu 02:36:00 AM 14.3537 -75.6519 342° North  Level FlightAware Approximate
Thu 02:37:00 AM 14.4717 -75.6911 342° North  Level FlightAware Approximate
Thu 02:38:00 AM 14.5898 -75.7302 342° North  Level FlightAware Approximate
Thu 02:39:00 AM 14.7079 -75.7694 342° North  Level FlightAware Approximate
Thu 02:40:00 AM 14.8259 -75.8087 342° North  Level FlightAware Approximate
Thu 02:41:00 AM 14.9439 -75.8480 342° North  Level FlightAware Approximate
Thu 02:42:00 AM 15.0619 -75.8874 342° North  Level FlightAware Approximate
Thu 02:43:00 AM 15.1799 -75.9270 342° North  Level FlightAware Approximate
Thu 02:44:00 AM 15.2979 -75.9666 342° North  Level FlightAware Approximate
Thu 02:45:00 AM 15.4158 -76.0063 342° North  Level FlightAware Approximate
Thu 02:46:00 AM 15.5338 -76.0460 342° North  Level FlightAware Approximate
Thu 02:47:00 AM 15.6517 -76.0857 342° North  Level FlightAware Approximate
Thu 02:48:00 AM 15.7697 -76.1255 342° North  Level FlightAware Approximate
Thu 02:49:00 AM 15.8876 -76.1654 342° North  Level FlightAware Approximate
Thu 02:50:00 AM 16.0055 -76.2052 342° North  Level FlightAware Approximate
Thu 02:51:00 AM 16.1234 -76.2452 342° North  Level FlightAware Approximate
Thu 02:52:00 AM 16.2413 -76.2851 342° North  Level FlightAware Approximate
Thu 02:53:00 AM 16.3592 -76.3252 342° North  Level FlightAware Approximate
Thu 02:54:00 AM 16.4771 -76.3653 342° North  Level FlightAware Approximate
Thu 02:55:00 AM 16.5950 -76.4054 342° North  Level FlightAware Approximate
Thu 02:56:00 AM 16.7129 -76.4455 342° North  Level FlightAware Approximate
Thu 02:57:00 AM 16.8307 -76.4858 342° North  Level FlightAware Approximate
Thu 02:58:00 AM 16.9486 -76.5260 342° North  Level FlightAware Approximate
Thu 02:59:00 AM 17.0665 -76.5664 342° North  Level FlightAware Approximate
Thu 03:00:00 AM 17.1843 -76.6067 342° North  Level FlightAware Approximate
Thu 03:01:00 AM 17.3021 -76.6472 342° North  Level FlightAware Approximate
Thu 03:02:00 AM 17.4200 -76.6877 342° North  Level FlightAware Approximate
Thu 03:03:00 AM 17.5378 -76.7282 342° North  Level FlightAware Approximate
Thu 03:04:00 AM 17.6556 -76.7688 342° North  Level FlightAware Approximate
Thu 03:05:00 AM 17.7734 -76.8094 342° North  Level FlightAware Approximate
Thu 03:06:00 AM 17.8912 -76.8501 342° North  Level FlightAware Approximate
Thu 03:07:00 AM 18.0090 -76.8908 342° North  Level FlightAware Approximate
Thu 03:08:00 AM 18.1268 -76.9316 342° North  Level FlightAware Approximate
Thu 03:09:00 AM 18.2445 -76.9725 342° North  Level FlightAware Approximate
Thu 03:10:00 AM 18.3623 -77.0134 342° North  Level FlightAware Approximate
Thu 03:11:00 AM 18.4800 -77.0544 342° North  Level FlightAware Approximate
Thu 03:12:00 AM 18.5978 -77.0954 342° North  Level FlightAware Approximate
Thu 03:13:00 AM 18.7155 -77.1365 342° North  Level FlightAware Approximate
Thu 03:14:00 AM 18.8332 -77.1776 342° North  Level FlightAware Approximate
Thu 03:15:00 AM 18.9509 -77.2188 342° North  Level FlightAware Approximate
Thu 03:16:00 AM 19.0686 -77.2600 342° North  Level FlightAware Approximate
Thu 03:17:00 AM 19.1863 -77.3014 342° North  Level FlightAware Approximate
Thu 03:18:00 AM 19.3040 -77.3427 342° North  Level FlightAware Approximate
Thu 03:19:00 AM 19.4217 -77.3842 342° North  Level FlightAware Approximate
Thu 03:20:00 AM 19.5389 -77.4270 341° North  Level FlightAware Approximate
Thu 03:21:00 AM 19.6559 -77.4708 341° North  Level FlightAware Approximate
Thu 03:22:00 AM 19.7728 -77.5146 341° North  Level FlightAware Approximate
Thu 03:23:00 AM 19.8897 -77.5585 341° North  Level FlightAware Approximate
Thu 03:24:00 AM 20.0067 -77.6024 341° North  Level FlightAware Approximate
Thu 03:25:00 AM 20.1243 -77.6443 341° North  Level FlightAware Approximate
Thu 03:26:00 AM 20.2418 -77.6863 341° North  Level FlightAware Approximate
Thu 03:27:00 AM 20.3594 -77.7283 341° North  Level FlightAware Approximate
Thu 03:28:00 AM 20.4769 -77.7704 341° North  Level FlightAware Approximate
Thu 03:29:00 AM 20.5945 -77.8126 341° North  Level FlightAware Approximate
Thu 03:30:00 AM 20.7120 -77.8549 341° North  Level FlightAware Approximate
Thu 03:31:00 AM 20.8295 -77.8971 341° North  Level FlightAware Approximate
Thu 03:32:00 AM 20.9470 -77.9395 341° North  Level FlightAware Approximate
Thu 03:33:00 AM 21.0645 -77.9820 341° North  Level FlightAware Approximate
Thu 03:34:00 AM 21.1820 -78.0245 341° North  Level FlightAware Approximate
Thu 03:35:00 AM 21.2995 -78.0670 341° North  Level FlightAware Approximate
Thu 03:36:00 AM 21.4174 -78.1098 341° North  Level FlightAware Approximate
Thu 03:37:00 AM 21.5352 -78.1527 341° North  Level FlightAware Approximate
Thu 03:38:00 AM 21.6531 -78.1956 341° North  Level FlightAware Approximate
Thu 03:39:00 AM 21.7709 -78.2386 341° North  Level FlightAware Approximate
Thu 03:40:00 AM 21.8887 -78.2816 341° North  Level FlightAware Approximate
Thu 03:41:00 AM 22.0065 -78.3248 341° North  Level FlightAware Approximate
Thu 03:42:00 AM 22.1243 -78.3680 341° North  Level FlightAware Approximate
Thu 03:43:00 AM 22.2421 -78.4113 341° North  Level FlightAware Approximate
Thu 03:43:34 AM 22.6192 -78.0539 341° North 459 528 36,000  Level Miami Center
Thu 03:44:00 AM 22.3599 -78.4546 341° North  Level FlightAware Approximate
Thu 03:44:35 AM 22.7294 -78.1044 337° Northwest 459 528 36,000  Level Miami Center
Thu 03:45:00 AM 22.4777 -78.4980 341° North  Level FlightAware Approximate
Thu 03:45:35 AM 22.8417 -78.1642 334° Northwest 445 512 36,000  Level Miami Center
Thu 03:46:00 AM 22.5954 -78.5415 341° North  Level FlightAware Approximate
Thu 03:46:33 AM 22.9622 -78.2283 334° Northwest 451 519 36,000  Level Miami Center
Thu 03:47:00 AM 22.7132 -78.5851 341° North  Level FlightAware Approximate
Thu 03:47:33 AM 23.0767 -78.2975 331° Northwest 451 519 36,000  Level Miami Center
Thu 03:48:00 AM 22.8309 -78.6288 341° North  Level FlightAware Approximate
Thu 03:48:36 AM 23.1828 -78.3506 335° Northwest 447 514 36,000  Level Miami Center
Thu 03:49:33 AM 23.3053 -78.4086 336° Northwest 447 514 36,000  Level Miami Center
Thu 03:50:33 AM 23.4303 -78.4464 345° North 465 535 36,000  Level Miami Center
Thu 03:51:35 AM 23.5642 -78.4456 360° North 465 535 36,000  Level Miami Center
Thu 03:52:35 AM 23.6853 -78.4403 North 475 547 36,000  Level Miami Center
Thu 03:53:36 AM 23.8208 -78.4669 350° North 480 552 36,000  Level Miami Center
Thu 03:54:34 AM 23.9519 -78.5164 341° North 480 552 36,000  Level Miami Center
Thu 03:55:35 AM 24.0725 -78.5703 338° Northwest 480 552 36,000  Level Miami Center
Thu 03:56:36 AM 24.1972 -78.6314 336° Northwest 475 547 36,000  Level Miami Center
Thu 03:57:36 AM 24.3178 -78.6878 337° Northwest 475 547 36,000  Level Miami Center
Thu 03:58:33 AM 24.4425 -78.7467 337° Northwest 480 552 36,000  Level Miami Center
Thu 03:59:33 AM 24.5608 -78.7986 338° Northwest 475 547 36,000  Level Miami Center
Thu 04:01:33 AM 24.7997 -78.9122 337° Northwest 469 540 36,000  Level Miami Center
Thu 04:02:33 AM 24.9325 -78.9717 338° Northwest 469 540 36,000  Level Miami Center
Thu 04:03:33 AM 25.0531 -79.0267 338° Northwest 464 534 36,000  Level Miami Center
Thu 04:04:35 AM 25.1692 -79.0814 337° Northwest 464 534 36,000  Level Miami Center
Thu 04:05:36 AM 25.2894 -79.1364 338° Northwest 459 528 36,000  Level Miami Center
Thu 04:06:35 AM 25.4097 -79.1939 337° Northwest 459 528 36,000  Level Miami Center
Thu 04:07:33 AM 25.5281 -79.2492 337° Northwest 459 528 36,000  Level Miami Center
Thu 04:08:35 AM 25.6419 -79.3044 336° Northwest 454 522 36,000  Level Miami Center
Thu 04:09:33 AM 25.7581 -79.3622 336° Northwest 454 522 36,000  Level Miami Center
Thu 04:10:35 AM 25.8658 -79.4128 337° Northwest 454 522 36,000  Level Miami Center
Thu 04:11:36 AM 25.9964 -79.4733 337° Northwest 459 528 36,000  Level Miami Center
Thu 04:12:35 AM 26.1164 -79.5317 336° Northwest 459 528 36,000  Level Miami Center
Thu 04:13:33 AM 26.2325 -79.5897 336° Northwest 454 522 36,000  Level Miami Center
Thu 04:14:36 AM 26.3381 -79.6408 337° Northwest 454 522 36,000  Level Miami Center
Thu 04:15:33 AM 26.4642 -79.7019 337° Northwest 454 522 36,000  Level Miami Center
Thu 04:16:35 AM 26.5719 -79.7533 337° Northwest 454 522 36,000  Level Miami Center
Thu 04:17:34 AM 26.7000 -79.8144 337° Northwest 455 524 36,000  Level Miami Center
Thu 04:18:34 AM 26.8139 -79.8686 337° Northwest 455 524 36,000  Level Miami Center
Thu 04:19:35 AM 26.9294 -79.9275 336° Northwest 455 524 36,000  Level Miami Center
Thu 04:20:33 AM 27.0331 -79.9769 337° Northwest 455 524 36,000 -51 Level Miami Center
Thu 04:21:33 AM 27.1569 -80.0408 335° Northwest 450 518 35,900  Descending Miami Center
Thu 04:22:35 AM 27.2725 -80.0978 336° Northwest 450 518 36,000 50 Climbing Miami Center
Thu 04:23:33 AM 27.3758 -80.1497 336° Northwest 450 518 36,000  Level Miami Center
Thu 04:24:35 AM 27.4872 -80.2044 336° Northwest 450 518 36,000  Level Miami Center
Thu 04:25:34 AM 27.5986 -80.2569 337° Northwest 445 512 36,000  Level Miami Center
Thu 04:26:34 AM 27.7103 -80.3119 336° Northwest 440 506 36,000  Level Miami Center
Thu 04:27:36 AM 27.8214 -80.3692 336° Northwest 440 506 36,000  Level Miami Center
Thu 04:28:36 AM 27.9411 -80.4247 338° Northwest 435 501 36,000  Level Miami Center
Thu 04:29:36 AM 28.0403 -80.4747 336° Northwest 435 501 36,000  Level Miami Center
Thu 04:30:34 AM 28.1597 -80.5328 337° Northwest 435 501 36,000  Level Miami Center
Thu 04:31:35 AM 28.2731 -80.5883 337° Northwest 435 501 36,000  Level Miami Center
Thu 04:33:50 AM 28.5217 -80.7167 336° Northwest 427 491 36,000  Level Jacksonville Center
Thu 04:34:50 AM 28.6292 -80.7733 335° Northwest 427 491 36,000  Level Jacksonville Center
Thu 04:35:50 AM 28.7406 -80.8278 337° Northwest 422 486 36,000  Level Jacksonville Center
Thu 04:36:50 AM 28.8500 -80.8825 336° Northwest 422 486 36,000  Level Jacksonville Center
Thu 04:37:50 AM 28.9594 -80.9372 336° Northwest 422 486 36,000  Level Jacksonville Center
Thu 04:38:50 AM 29.0689 -80.9944 335° Northwest 427 491 36,000  Level Jacksonville Center
Thu 04:39:50 AM 29.1781 -81.0517 335° Northwest 421 484 36,000  Level Jacksonville Center
Thu 04:40:50 AM 29.2875 -81.1044 337° Northwest 419 482 36,000  Level Jacksonville Center
Thu 04:41:50 AM 29.3925 -81.1644 334° Northwest 425 489 36,000  Level Jacksonville Center
Thu 04:42:50 AM 29.4853 -81.2297 329° Northwest 425 489 36,000  Level Jacksonville Center
Thu 04:43:50 AM 29.5883 -81.2925 332° Northwest 425 489 36,000  Level Jacksonville Center
Thu 04:44:50 AM 29.6936 -81.3578 332° Northwest 425 489 36,000  Level Jacksonville Center
Thu 04:45:50 AM 29.7986 -81.4206 333° Northwest 425 489 36,000  Level Jacksonville Center
Thu 04:46:50 AM 29.9039 -81.4836 333° Northwest 425 489 36,000  Level Jacksonville Center
Thu 04:47:50 AM 30.0067 -81.5447 333° Northwest 420 483 36,000  Level Jacksonville Center
Thu 04:48:50 AM 30.1097 -81.6103 331° Northwest 420 483 36,000  Level Jacksonville Center
Thu 04:49:50 AM 30.2086 -81.6836 327° Northwest 420 483 36,000  Level Jacksonville Center
Thu 04:50:50 AM 30.3033 -81.7569 326° Northwest 420 483 36,000  Level Jacksonville Center
Thu 04:51:50 AM 30.4019 -81.8328 326° Northwest 420 483 36,000  Level Jacksonville Center
Thu 04:52:50 AM 30.4967 -81.9042 327° Northwest 420 483 36,000  Level Jacksonville Center
Thu 04:53:50 AM 30.6058 -81.9947 324° Northwest 431 496 36,000  Level Jacksonville Center
Thu 04:54:50 AM 30.7003 -82.0686 326° Northwest 431 496 36,000  Level Jacksonville Center
Thu 04:55:50 AM 30.7947 -82.1428 326° Northwest 420 483 36,000  Level Jacksonville Center
Thu 04:56:50 AM 30.8889 -82.2147 327° Northwest 415 478 36,000  Level Jacksonville Center
Thu 04:58:21 AM 31.0231 -82.3164 327° Northwest 410 472 36,000  Level Atlanta Center
Thu 04:59:21 AM 31.1158 -82.3872 327° Northwest 404 465 36,000  Level Atlanta Center
Thu 05:00:21 AM 31.2064 -82.4608 325° Northwest 399 459 36,000  Level Atlanta Center
Thu 05:01:21 AM 31.2969 -82.5347 325° Northwest 399 459 36,000  Level Atlanta Center
Thu 05:02:21 AM 31.3897 -82.6061 327° Northwest 404 465 36,000  Level Atlanta Center
Thu 05:03:21 AM 31.4783 -82.6803 324° Northwest 404 465 36,000  Level Atlanta Center
Thu 05:04:21 AM 31.5708 -82.7519 327° Northwest 404 465 36,000  Level Atlanta Center
Thu 05:05:21 AM 31.6656 -82.8261 326° Northwest 404 465 36,000  Level Atlanta Center
Thu 05:06:21 AM 31.7558 -82.8983 326° Northwest 404 465 36,000  Level Atlanta Center
Thu 05:07:21 AM 31.8483 -82.9753 325° Northwest 404 465 36,000  Level Atlanta Center
Thu 05:08:21 AM 31.9431 -83.0500 326° Northwest 404 465 36,000  Level Atlanta Center
Thu 05:09:21 AM 32.0353 -83.1225 326° Northwest 404 465 36,000 -50 Level Atlanta Center
Thu 05:10:21 AM 32.1278 -83.1975 326° Northwest 404 465 35,900 -750 Descending Atlanta Center
Thu 05:11:21 AM 32.2222 -83.2728 326° Northwest 404 465 34,500 -1,700 Descending Atlanta Center
Thu 05:12:21 AM 32.3144 -83.3483 325° Northwest 404 465 32,500 -2,100 Descending Atlanta Center
Thu 05:13:21 AM 32.4236 -83.4383 325° Northwest 417 480 30,300 -2,700 Descending Atlanta Center
Thu 05:14:21 AM 32.5219 -83.5192 325° Northwest 423 487 27,100 -3,050 Descending Atlanta Center
Thu 05:15:21 AM 32.6203 -83.6000 325° Northwest 428 493 24,200 -2,850 Descending Atlanta Center
Thu 05:16:21 AM 32.7144 -83.6783 325° Northwest 428 493 21,400 -2,750 Descending Atlanta Center
Thu 05:17:21 AM 32.8086 -83.7522 327° Northwest 428 493 18,700 -2,650 Descending Atlanta Center
Thu 05:18:21 AM 32.9008 -83.8333 324° Northwest 422 486 16,100 -2,600 Descending Atlanta Center
Thu 05:19:21 AM 32.9906 -83.9050 326° Northwest 410 472 13,500 -2,450 Descending Atlanta Center
Thu 05:20:21 AM 33.0783 -83.9769 326° Northwest 394 453 11,200 -1,550 Descending Atlanta Center
Thu 05:21:21 AM 33.1597 -84.0414 326° Northwest 370 426 10,400 -650 Descending Atlanta Center
Thu 05:22:21 AM 33.2411 -84.0636 347° North 315 362 9,900 -850 Descending Atlanta Center
Thu 05:23:21 AM 33.3183 -84.0811 349° North 288 331 8,700 -1,150 Descending Atlanta Center
Thu 05:24:21 AM 33.3914 -84.0986 349° North 275 316 7,600 -1,050 Descending Atlanta Center
Thu 05:25:21 AM 33.4603 -84.1186 346° North 260 299 6,600 -1,200 Descending Atlanta Center
Thu 05:26:01 AM 33.5000 -84.1333 343° North 237 273 5,600 -1,380 Descending Atlanta TRACON
Thu 05:27:01 AM 33.5667 -84.1333 360° North 222 255 4,300 -1,158 Descending Atlanta TRACON
Thu 05:27:55 AM 33.6167 -84.1500 344° North 178 205 3,400 -650 Descending Atlanta TRACON
Thu 05:29:01 AM 33.6500 -84.2000 309° West 171 197 3,000 -190 Descending Atlanta TRACON
Thu 05:30:01 AM 33.6500 -84.2500 270° West 175 201 3,000  Level Atlanta TRACON

Login

Don't have an account? Register now (free) for customized features, flight alerts, and more!